sensor_id;sensor_type;location;lat;lon;timestamp;temperature;humidity
49032;DHT22;63443;48.366;10.876;2023-04-03T00:01:56;6.40;99.70
49032;DHT22;63443;48.366;10.876;2023-04-03T00:04:21;6.40;99.40
49032;DHT22;63443;48.366;10.876;2023-04-03T00:06:46;6.40;99.30
49032;DHT22;63443;48.366;10.876;2023-04-03T00:09:12;6.40;99.20
49032;DHT22;63443;48.366;10.876;2023-04-03T00:11:37;6.40;99.20
49032;DHT22;63443;48.366;10.876;2023-04-03T00:14:03;6.40;99.20
49032;DHT22;63443;48.366;10.876;2023-04-03T00:16:28;6.40;98.90
49032;DHT22;63443;48.366;10.876;2023-04-03T00:18:54;6.40;98.60
49032;DHT22;63443;48.366;10.876;2023-04-03T00:21:19;6.30;98.90
49032;DHT22;63443;48.366;10.876;2023-04-03T00:23:45;6.30;99.00
49032;DHT22;63443;48.366;10.876;2023-04-03T00:26:10;6.30;99.10
49032;DHT22;63443;48.366;10.876;2023-04-03T00:28:36;6.30;99.10
49032;DHT22;63443;48.366;10.876;2023-04-03T00:31:01;6.30;99.10
49032;DHT22;63443;48.366;10.876;2023-04-03T00:33:27;6.20;99.10
49032;DHT22;63443;48.366;10.876;2023-04-03T00:35:52;6.20;99.20
49032;DHT22;63443;48.366;10.876;2023-04-03T00:38:18;6.20;99.30
49032;DHT22;63443;48.366;10.876;2023-04-03T00:40:44;6.20;99.10
49032;DHT22;63443;48.366;10.876;2023-04-03T00:43:18;6.20;99.10
49032;DHT22;63443;48.366;10.876;2023-04-03T00:45:48;6.10;99.20
49032;DHT22;63443;48.366;10.876;2023-04-03T00:48:18;6.10;99.10
49032;DHT22;63443;48.366;10.876;2023-04-03T00:50:45;6.10;98.80
49032;DHT22;63443;48.366;10.876;2023-04-03T00:53:13;6.10;98.90
49032;DHT22;63443;48.366;10.876;2023-04-03T00:55:39;6.20;98.30
49032;DHT22;63443;48.366;10.876;2023-04-03T00:58:06;6.20;98.20
49032;DHT22;63443;48.366;10.876;2023-04-03T01:00:32;6.20;98.30
49032;DHT22;63443;48.366;10.876;2023-04-03T01:02:58;6.10;98.20
49032;DHT22;63443;48.366;10.876;2023-04-03T01:05:24;6.20;97.70
49032;DHT22;63443;48.366;10.876;2023-04-03T01:07:50;6.10;98.00
49032;DHT22;63443;48.366;10.876;2023-04-03T01:10:16;6.10;98.20
49032;DHT22;63443;48.366;10.876;2023-04-03T01:12:43;6.10;98.30
49032;DHT22;63443;48.366;10.876;2023-04-03T01:15:11;6.10;98.20
49032;DHT22;63443;48.366;10.876;2023-04-03T01:17:39;6.10;97.80
49032;DHT22;63443;48.366;10.876;2023-04-03T01:25:19;6.10;98.00
49032;DHT22;63443;48.366;10.876;2023-04-03T01:27:45;6.10;98.10
49032;DHT22;63443;48.366;10.876;2023-04-03T01:30:10;6.00;97.60
49032;DHT22;63443;48.366;10.876;2023-04-03T01:32:37;6.10;97.70
49032;DHT22;63443;48.366;10.876;2023-04-03T01:35:02;6.00;97.70
49032;DHT22;63443;48.366;10.876;2023-04-03T01:37:28;6.00;97.90
49032;DHT22;63443;48.366;10.876;2023-04-03T01:39:53;6.00;97.60
49032;DHT22;63443;48.366;10.876;2023-04-03T01:42:19;6.00;97.70
49032;DHT22;63443;48.366;10.876;2023-04-03T01:44:44;6.00;97.70
49032;DHT22;63443;48.366;10.876;2023-04-03T01:47:11;6.00;98.00
49032;DHT22;63443;48.366;10.876;2023-04-03T01:49:36;5.90;97.60
49032;DHT22;63443;48.366;10.876;2023-04-03T01:52:01;5.90;97.40
49032;DHT22;63443;48.366;10.876;2023-04-03T01:54:27;6.00;97.50
49032;DHT22;63443;48.366;10.876;2023-04-03T01:56:52;6.00;97.60
49032;DHT22;63443;48.366;10.876;2023-04-03T01:59:18;6.00;97.80
49032;DHT22;63443;48.366;10.876;2023-04-03T02:01:44;6.00;97.60
49032;DHT22;63443;48.366;10.876;2023-04-03T02:04:10;6.00;97.60
49032;DHT22;63443;48.366;10.876;2023-04-03T02:06:36;5.90;97.20
49032;DHT22;63443;48.366;10.876;2023-04-03T02:09:02;6.00;97.40
49032;DHT22;63443;48.366;10.876;2023-04-03T02:11:27;6.00;97.70
49032;DHT22;63443;48.366;10.876;2023-04-03T02:13:53;5.90;97.80
49032;DHT22;63443;48.366;10.876;2023-04-03T02:16:18;5.90;97.90
49032;DHT22;63443;48.366;10.876;2023-04-03T02:18:44;5.90;97.90
49032;DHT22;63443;48.366;10.876;2023-04-03T02:21:09;5.90;98.00
49032;DHT22;63443;48.366;10.876;2023-04-03T02:23:34;5.90;97.90
49032;DHT22;63443;48.366;10.876;2023-04-03T02:26:12;5.90;98.10
49032;DHT22;63443;48.366;10.876;2023-04-03T02:28:38;5.90;98.10
49032;DHT22;63443;48.366;10.876;2023-04-03T02:31:04;5.90;98.00
49032;DHT22;63443;48.366;10.876;2023-04-03T02:33:29;5.90;98.00
49032;DHT22;63443;48.366;10.876;2023-04-03T02:35:55;5.90;98.20
49032;DHT22;63443;48.366;10.876;2023-04-03T02:38:21;5.90;98.40
49032;DHT22;63443;48.366;10.876;2023-04-03T02:40:47;5.90;98.20
49032;DHT22;63443;48.366;10.876;2023-04-03T02:43:12;5.90;98.20
49032;DHT22;63443;48.366;10.876;2023-04-03T02:45:37;5.90;98.30
49032;DHT22;63443;48.366;10.876;2023-04-03T02:48:03;5.90;98.30
49032;DHT22;63443;48.366;10.876;2023-04-03T02:50:29;5.90;98.40
49032;DHT22;63443;48.366;10.876;2023-04-03T02:52:54;5.90;98.60
49032;DHT22;63443;48.366;10.876;2023-04-03T02:55:20;5.90;98.70
49032;DHT22;63443;48.366;10.876;2023-04-03T02:57:45;5.90;98.60
49032;DHT22;63443;48.366;10.876;2023-04-03T03:00:11;5.90;98.70
49032;DHT22;63443;48.366;10.876;2023-04-03T03:02:37;5.80;98.60
49032;DHT22;63443;48.366;10.876;2023-04-03T03:05:02;5.90;98.60
49032;DHT22;63443;48.366;10.876;2023-04-03T03:07:28;5.90;98.40
49032;DHT22;63443;48.366;10.876;2023-04-03T03:09:53;5.80;98.80
49032;DHT22;63443;48.366;10.876;2023-04-03T03:12:19;5.80;98.90
49032;DHT22;63443;48.366;10.876;2023-04-03T03:14:47;5.90;99.00
49032;DHT22;63443;48.366;10.876;2023-04-03T03:17:13;5.80;98.90
49032;DHT22;63443;48.366;10.876;2023-04-03T03:19:38;5.90;99.00
49032;DHT22;63443;48.366;10.876;2023-04-03T03:22:04;5.80;98.80
49032;DHT22;63443;48.366;10.876;2023-04-03T03:24:29;5.80;98.70
49032;DHT22;63443;48.366;10.876;2023-04-03T03:26:55;5.90;99.30
49032;DHT22;63443;48.366;10.876;2023-04-03T03:29:20;5.80;99.50
49032;DHT22;63443;48.366;10.876;2023-04-03T03:31:46;5.80;99.50
49032;DHT22;63443;48.366;10.876;2023-04-03T03:34:11;5.80;99.50
49032;DHT22;63443;48.366;10.876;2023-04-03T03:36:37;5.90;99.50
49032;DHT22;63443;48.366;10.876;2023-04-03T03:39:02;5.90;99.50
49032;DHT22;63443;48.366;10.876;2023-04-03T03:41:28;5.90;99.40
49032;DHT22;63443;48.366;10.876;2023-04-03T03:43:53;5.90;99.40
49032;DHT22;63443;48.366;10.876;2023-04-03T03:46:19;5.90;99.30
49032;DHT22;63443;48.366;10.876;2023-04-03T03:48:44;5.90;99.50
49032;DHT22;63443;48.366;10.876;2023-04-03T03:51:10;5.80;99.70
49032;DHT22;63443;48.366;10.876;2023-04-03T03:53:35;5.80;99.70
49032;DHT22;63443;48.366;10.876;2023-04-03T03:56:01;5.80;99.90
49032;DHT22;63443;48.366;10.876;2023-04-03T03:58:26;5.80;99.90
49032;DHT22;63443;48.366;10.876;2023-04-03T04:00:52;5.80;99.90
49032;DHT22;63443;48.366;10.876;2023-04-03T04:03:17;5.80;99.90
49032;DHT22;63443;48.366;10.876;2023-04-03T04:05:43;5.70;99.80
49032;DHT22;63443;48.366;10.876;2023-04-03T04:08:09;5.70;99.90
49032;DHT22;63443;48.366;10.876;2023-04-03T04:10:34;5.70;99.90
49032;DHT22;63443;48.366;10.876;2023-04-03T04:13:00;5.70;99.90
49032;DHT22;63443;48.366;10.876;2023-04-03T04:15:26;5.80;99.90
49032;DHT22;63443;48.366;10.876;2023-04-03T04:17:52;5.80;99.90
49032;DHT22;63443;48.366;10.876;2023-04-03T04:20:18;5.80;99.90
49032;DHT22;63443;48.366;10.876;2023-04-03T04:22:45;5.80;99.90
49032;DHT22;63443;48.366;10.876;2023-04-03T04:25:11;5.80;99.90
49032;DHT22;63443;48.366;10.876;2023-04-03T04:27:36;5.80;99.70
49032;DHT22;63443;48.366;10.876;2023-04-03T04:30:02;5.70;99.80
49032;DHT22;63443;48.366;10.876;2023-04-03T04:32:28;5.60;99.90
49032;DHT22;63443;48.366;10.876;2023-04-03T04:34:54;5.70;99.90
49032;DHT22;63443;48.366;10.876;2023-04-03T04:37:20;5.70;99.90
49032;DHT22;63443;48.366;10.876;2023-04-03T04:39:45;5.70;99.90
49032;DHT22;63443;48.366;10.876;2023-04-03T04:42:10;5.70;99.90
49032;DHT22;63443;48.366;10.876;2023-04-03T04:44:38;5.70;99.90
49032;DHT22;63443;48.366;10.876;2023-04-03T04:47:03;5.70;99.90
49032;DHT22;63443;48.366;10.876;2023-04-03T04:49:29;5.70;99.90
49032;DHT22;63443;48.366;10.876;2023-04-03T04:51:54;5.70;99.90
49032;DHT22;63443;48.366;10.876;2023-04-03T04:54:20;5.80;99.90
49032;DHT22;63443;48.366;10.876;2023-04-03T04:56:46;5.70;99.90
49032;DHT22;63443;48.366;10.876;2023-04-03T04:59:11;5.70;99.90
49032;DHT22;63443;48.366;10.876;2023-04-03T05:01:37;5.70;99.90
49032;DHT22;63443;48.366;10.876;2023-04-03T05:04:02;5.70;99.90
49032;DHT22;63443;48.366;10.876;2023-04-03T05:06:28;5.70;99.90
49032;DHT22;63443;48.366;10.876;2023-04-03T05:08:55;5.80;99.90
49032;DHT22;63443;48.366;10.876;2023-04-03T05:11:20;5.70;99.90
49032;DHT22;63443;48.366;10.876;2023-04-03T05:13:46;5.70;99.90
49032;DHT22;63443;48.366;10.876;2023-04-03T05:16:11;5.70;99.90
49032;DHT22;63443;48.366;10.876;2023-04-03T05:18:37;5.70;99.90
49032;DHT22;63443;48.366;10.876;2023-04-03T05:21:03;5.70;99.90
49032;DHT22;63443;48.366;10.876;2023-04-03T05:23:28;5.70;99.90
49032;DHT22;63443;48.366;10.876;2023-04-03T05:25:54;5.70;99.90
49032;DHT22;63443;48.366;10.876;2023-04-03T05:28:19;5.70;99.90
49032;DHT22;63443;48.366;10.876;2023-04-03T05:30:45;5.70;99.90
49032;DHT22;63443;48.366;10.876;2023-04-03T05:33:10;5.70;99.90
49032;DHT22;63443;48.366;10.876;2023-04-03T05:35:36;5.70;99.90
49032;DHT22;63443;48.366;10.876;2023-04-03T05:38:04;5.70;99.90
49032;DHT22;63443;48.366;10.876;2023-04-03T05:40:30;5.70;99.90
49032;DHT22;63443;48.366;10.876;2023-04-03T05:42:55;5.70;99.90
49032;DHT22;63443;48.366;10.876;2023-04-03T05:45:21;5.70;99.90
49032;DHT22;63443;48.366;10.876;2023-04-03T05:47:46;5.70;99.90
49032;DHT22;63443;48.366;10.876;2023-04-03T05:50:12;5.70;99.90
49032;DHT22;63443;48.366;10.876;2023-04-03T05:52:38;5.70;99.90
49032;DHT22;63443;48.366;10.876;2023-04-03T05:55:05;5.70;99.90
49032;DHT22;63443;48.366;10.876;2023-04-03T05:57:31;5.70;99.90
49032;DHT22;63443;48.366;10.876;2023-04-03T05:59:56;5.80;99.90
49032;DHT22;63443;48.366;10.876;2023-04-03T06:02:22;5.70;99.90
49032;DHT22;63443;48.366;10.876;2023-04-03T06:04:48;5.80;99.90
49032;DHT22;63443;48.366;10.876;2023-04-03T06:07:15;5.80;99.90
49032;DHT22;63443;48.366;10.876;2023-04-03T06:09:41;5.80;99.90
49032;DHT22;63443;48.366;10.876;2023-04-03T06:12:07;5.80;99.90
49032;DHT22;63443;48.366;10.876;2023-04-03T06:14:33;5.80;99.90
49032;DHT22;63443;48.366;10.876;2023-04-03T06:16:58;5.80;99.90
49032;DHT22;63443;48.366;10.876;2023-04-03T06:19:24;5.80;99.90
49032;DHT22;63443;48.366;10.876;2023-04-03T06:21:50;5.80;99.90
49032;DHT22;63443;48.366;10.876;2023-04-03T06:24:16;5.90;99.90
49032;DHT22;63443;48.366;10.876;2023-04-03T06:26:42;5.90;99.90
49032;DHT22;63443;48.366;10.876;2023-04-03T06:29:08;5.90;99.90
49032;DHT22;63443;48.366;10.876;2023-04-03T06:31:34;6.00;99.90
49032;DHT22;63443;48.366;10.876;2023-04-03T06:33:59;6.00;99.90
49032;DHT22;63443;48.366;10.876;2023-04-03T06:36:25;6.00;99.90
49032;DHT22;63443;48.366;10.876;2023-04-03T06:38:51;6.10;99.90
49032;DHT22;63443;48.366;10.876;2023-04-03T06:41:16;6.10;99.90
49032;DHT22;63443;48.366;10.876;2023-04-03T06:43:43;6.20;99.90
49032;DHT22;63443;48.366;10.876;2023-04-03T06:46:15;6.20;99.90
49032;DHT22;63443;48.366;10.876;2023-04-03T06:48:40;6.20;99.90
49032;DHT22;63443;48.366;10.876;2023-04-03T06:51:08;6.30;99.90
49032;DHT22;63443;48.366;10.876;2023-04-03T06:53:33;6.30;99.90
49032;DHT22;63443;48.366;10.876;2023-04-03T06:55:59;6.30;99.90
49032;DHT22;63443;48.366;10.876;2023-04-03T06:58:25;6.40;99.90
49032;DHT22;63443;48.366;10.876;2023-04-03T07:00:50;6.40;99.90
49032;DHT22;63443;48.366;10.876;2023-04-03T07:03:15;6.40;99.90
49032;DHT22;63443;48.366;10.876;2023-04-03T07:05:41;6.40;99.90
49032;DHT22;63443;48.366;10.876;2023-04-03T07:08:09;6.50;99.90
49032;DHT22;63443;48.366;10.876;2023-04-03T07:10:35;6.60;99.90
49032;DHT22;63443;48.366;10.876;2023-04-03T07:13:00;6.60;99.90
49032;DHT22;63443;48.366;10.876;2023-04-03T07:15:26;6.60;99.90
49032;DHT22;63443;48.366;10.876;2023-04-03T07:17:52;6.70;99.90
49032;DHT22;63443;48.366;10.876;2023-04-03T07:20:17;6.80;99.90
49032;DHT22;63443;48.366;10.876;2023-04-03T07:22:43;6.80;99.90
49032;DHT22;63443;48.366;10.876;2023-04-03T07:25:08;6.90;99.70
49032;DHT22;63443;48.366;10.876;2023-04-03T07:27:34;6.90;99.50
49032;DHT22;63443;48.366;10.876;2023-04-03T07:29:59;6.90;99.50
49032;DHT22;63443;48.366;10.876;2023-04-03T07:32:25;7.00;99.50
49032;DHT22;63443;48.366;10.876;2023-04-03T07:34:51;7.00;99.50
49032;DHT22;63443;48.366;10.876;2023-04-03T07:37:16;7.10;99.40
49032;DHT22;63443;48.366;10.876;2023-04-03T07:39:43;7.10;99.40
49032;DHT22;63443;48.366;10.876;2023-04-03T07:42:10;7.20;99.20
49032;DHT22;63443;48.366;10.876;2023-04-03T07:44:35;7.20;98.80
49032;DHT22;63443;48.366;10.876;2023-04-03T07:47:01;7.20;98.90
49032;DHT22;63443;48.366;10.876;2023-04-03T07:49:27;7.30;98.90
49032;DHT22;63443;48.366;10.876;2023-04-03T07:51:52;7.30;98.60
49032;DHT22;63443;48.366;10.876;2023-04-03T07:54:18;7.30;98.40
49032;DHT22;63443;48.366;10.876;2023-04-03T07:56:43;7.30;98.30
49032;DHT22;63443;48.366;10.876;2023-04-03T07:59:09;7.40;98.10
49032;DHT22;63443;48.366;10.876;2023-04-03T08:01:35;7.40;98.00
49032;DHT22;63443;48.366;10.876;2023-04-03T08:04:01;7.40;98.10
49032;DHT22;63443;48.366;10.876;2023-04-03T08:06:26;7.40;98.10
49032;DHT22;63443;48.366;10.876;2023-04-03T08:08:54;7.50;98.10
49032;DHT22;63443;48.366;10.876;2023-04-03T08:11:19;7.50;98.00
49032;DHT22;63443;48.366;10.876;2023-04-03T08:13:46;7.60;97.80
49032;DHT22;63443;48.366;10.876;2023-04-03T08:16:12;7.60;97.80
49032;DHT22;63443;48.366;10.876;2023-04-03T08:18:38;7.60;97.90
49032;DHT22;63443;48.366;10.876;2023-04-03T08:21:08;7.70;97.60
49032;DHT22;63443;48.366;10.876;2023-04-03T08:23:33;7.80;97.20
49032;DHT22;63443;48.366;10.876;2023-04-03T08:26:04;7.80;96.70
49032;DHT22;63443;48.366;10.876;2023-04-03T08:28:30;7.80;96.40
49032;DHT22;63443;48.366;10.876;2023-04-03T08:30:55;7.80;96.60
49032;DHT22;63443;48.366;10.876;2023-04-03T08:33:21;7.80;96.70
49032;DHT22;63443;48.366;10.876;2023-04-03T08:35:46;7.80;96.70
49032;DHT22;63443;48.366;10.876;2023-04-03T08:38:12;7.90;96.50
49032;DHT22;63443;48.366;10.876;2023-04-03T08:40:38;7.90;96.50
49032;DHT22;63443;48.366;10.876;2023-04-03T08:45:37;7.90;96.40
49032;DHT22;63443;48.366;10.876;2023-04-03T08:48:07;7.90;96.30
49032;DHT22;63443;48.366;10.876;2023-04-03T08:50:37;7.80;96.40
49032;DHT22;63443;48.366;10.876;2023-04-03T08:53:04;7.80;96.40
49032;DHT22;63443;48.366;10.876;2023-04-03T08:55:38;7.80;96.30
49032;DHT22;63443;48.366;10.876;2023-04-03T08:58:05;7.80;95.90
49032;DHT22;63443;48.366;10.876;2023-04-03T09:00:43;7.80;96.10
49032;DHT22;63443;48.366;10.876;2023-04-03T09:03:12;7.80;96.10
49032;DHT22;63443;48.366;10.876;2023-04-03T09:10:33;7.70;96.70
49032;DHT22;63443;48.366;10.876;2023-04-03T09:13:00;7.60;96.60
49032;DHT22;63443;48.366;10.876;2023-04-03T09:15:27;7.60;96.20
49032;DHT22;63443;48.366;10.876;2023-04-03T09:23:14;7.50;95.70
49032;DHT22;63443;48.366;10.876;2023-04-03T09:25:41;7.60;95.70
49032;DHT22;63443;48.366;10.876;2023-04-03T09:28:08;7.70;95.80
49032;DHT22;63443;48.366;10.876;2023-04-03T09:30:35;7.60;95.60
49032;DHT22;63443;48.366;10.876;2023-04-03T09:33:00;7.60;95.50
49032;DHT22;63443;48.366;10.876;2023-04-03T09:35:31;7.60;95.30
49032;DHT22;63443;48.366;10.876;2023-04-03T09:40:35;7.60;95.20
49032;DHT22;63443;48.366;10.876;2023-04-03T09:45:40;7.50;95.50
49032;DHT22;63443;48.366;10.876;2023-04-03T09:48:08;7.50;95.50
49032;DHT22;63443;48.366;10.876;2023-04-03T09:50:35;7.40;95.30
49032;DHT22;63443;48.366;10.876;2023-04-03T09:53:04;7.40;95.50
49032;DHT22;63443;48.366;10.876;2023-04-03T09:55:31;7.50;95.70
49032;DHT22;63443;48.366;10.876;2023-04-03T09:58:03;7.50;96.00
49032;DHT22;63443;48.366;10.876;2023-04-03T10:00:36;7.60;95.70
49032;DHT22;63443;48.366;10.876;2023-04-03T10:03:02;7.70;95.50
49032;DHT22;63443;48.366;10.876;2023-04-03T10:10:38;8.30;94.60
49032;DHT22;63443;48.366;10.876;2023-04-03T10:13:11;8.40;93.80
49032;DHT22;63443;48.366;10.876;2023-04-03T10:15:39;8.50;94.00
49032;DHT22;63443;48.366;10.876;2023-04-03T10:18:12;8.50;93.70
49032;DHT22;63443;48.366;10.876;2023-04-03T10:20:43;8.60;93.50
49032;DHT22;63443;48.366;10.876;2023-04-03T10:23:31;8.50;92.50
49032;DHT22;63443;48.366;10.876;2023-04-03T10:26:09;8.50;92.70
49032;DHT22;63443;48.366;10.876;2023-04-03T10:28:48;8.40;92.70
49032;DHT22;63443;48.366;10.876;2023-04-03T10:31:27;8.30;92.70
49032;DHT22;63443;48.366;10.876;2023-04-03T10:41:54;8.10;92.60
49032;DHT22;63443;48.366;10.876;2023-04-03T10:44:29;8.00;92.80
49032;DHT22;63443;48.366;10.876;2023-04-03T10:47:00;8.00;92.80
49032;DHT22;63443;48.366;10.876;2023-04-03T10:52:06;8.00;92.70
49032;DHT22;63443;48.366;10.876;2023-04-03T10:54:37;8.00;92.70
49032;DHT22;63443;48.366;10.876;2023-04-03T10:57:04;8.00;94.40
49032;DHT22;63443;48.366;10.876;2023-04-03T10:59:35;8.10;95.30
49032;DHT22;63443;48.366;10.876;2023-04-03T11:02:22;8.10;94.70
49032;DHT22;63443;48.366;10.876;2023-04-03T11:04:51;8.10;94.00
49032;DHT22;63443;48.366;10.876;2023-04-03T11:07:18;8.10;93.40
49032;DHT22;63443;48.366;10.876;2023-04-03T11:09:47;8.20;93.40
49032;DHT22;63443;48.366;10.876;2023-04-03T11:12:24;8.20;93.40
49032;DHT22;63443;48.366;10.876;2023-04-03T11:14:51;8.20;92.80
49032;DHT22;63443;48.366;10.876;2023-04-03T11:19:47;8.20;92.10
49032;DHT22;63443;48.366;10.876;2023-04-03T11:24:46;8.00;92.50
49032;DHT22;63443;48.366;10.876;2023-04-03T11:27:17;7.90;93.00
49032;DHT22;63443;48.366;10.876;2023-04-03T11:29:47;7.90;93.30
49032;DHT22;63443;48.366;10.876;2023-04-03T11:32:27;7.80;93.50
49032;DHT22;63443;48.366;10.876;2023-04-03T11:34:56;7.80;93.90
49032;DHT22;63443;48.366;10.876;2023-04-03T11:40:00;7.80;93.80
49032;DHT22;63443;48.366;10.876;2023-04-03T11:42:33;7.80;93.80
49032;DHT22;63443;48.366;10.876;2023-04-03T11:47:47;7.80;93.00
49032;DHT22;63443;48.366;10.876;2023-04-03T11:53:02;7.90;92.90
49032;DHT22;63443;48.366;10.876;2023-04-03T12:05:53;8.00;92.10
49032;DHT22;63443;48.366;10.876;2023-04-03T12:08:26;8.20;92.30
49032;DHT22;63443;48.366;10.876;2023-04-03T12:26:41;8.50;88.10
49032;DHT22;63443;48.366;10.876;2023-04-03T12:29:21;8.60;88.50
49032;DHT22;63443;48.366;10.876;2023-04-03T12:37:23;8.70;86.90
49032;DHT22;63443;48.366;10.876;2023-04-03T12:39:55;8.90;87.10
49032;DHT22;63443;48.366;10.876;2023-04-03T12:42:31;9.10;86.40
49032;DHT22;63443;48.366;10.876;2023-04-03T12:47:31;9.60;85.30
49032;DHT22;63443;48.366;10.876;2023-04-03T12:49:58;10.70;84.00
49032;DHT22;63443;48.366;10.876;2023-04-03T12:52:41;13.00;79.40
49032;DHT22;63443;48.366;10.876;2023-04-03T12:55:14;15.30;73.60
49032;DHT22;63443;48.366;10.876;2023-04-03T12:57:40;17.30;62.50
49032;DHT22;63443;48.366;10.876;2023-04-03T13:00:18;18.10;55.80
49032;DHT22;63443;48.366;10.876;2023-04-03T13:02:44;17.70;53.60
49032;DHT22;63443;48.366;10.876;2023-04-03T13:05:15;16.80;53.40
49032;DHT22;63443;48.366;10.876;2023-04-03T13:07:41;15.90;53.50
49032;DHT22;63443;48.366;10.876;2023-04-03T13:12:34;14.30;55.70
49032;DHT22;63443;48.366;10.876;2023-04-03T13:15:01;13.80;56.90
49032;DHT22;63443;48.366;10.876;2023-04-03T13:17:29;15.30;57.80
49032;DHT22;63443;48.366;10.876;2023-04-03T13:19:55;17.10;51.50
49032;DHT22;63443;48.366;10.876;2023-04-03T13:22:36;16.50;50.40
49032;DHT22;63443;48.366;10.876;2023-04-03T13:25:09;15.70;51.00
49032;DHT22;63443;48.366;10.876;2023-04-03T13:27:35;14.50;52.10
49032;DHT22;63443;48.366;10.876;2023-04-03T13:30:02;13.50;54.20
49032;DHT22;63443;48.366;10.876;2023-04-03T13:32:28;12.70;54.90
49032;DHT22;63443;48.366;10.876;2023-04-03T13:34:55;12.10;56.00
49032;DHT22;63443;48.366;10.876;2023-04-03T13:42:28;10.70;57.40
49032;DHT22;63443;48.366;10.876;2023-04-03T13:47:39;10.20;58.30
49032;DHT22;63443;48.366;10.876;2023-04-03T13:52:43;10.20;59.00
49032;DHT22;63443;48.366;10.876;2023-04-03T14:00:35;10.20;59.30
49032;DHT22;63443;48.366;10.876;2023-04-03T14:03:01;10.20;59.70
49032;DHT22;63443;48.366;10.876;2023-04-03T14:05:26;10.20;59.50
49032;DHT22;63443;48.366;10.876;2023-04-03T14:07:53;10.40;59.90
49032;DHT22;63443;48.366;10.876;2023-04-03T14:10:18;10.60;59.00
49032;DHT22;63443;48.366;10.876;2023-04-03T14:12:44;11.00;59.10
49032;DHT22;63443;48.366;10.876;2023-04-03T14:15:20;11.80;58.30
49032;DHT22;63443;48.366;10.876;2023-04-03T14:17:47;14.50;56.60
49032;DHT22;63443;48.366;10.876;2023-04-03T14:20:17;14.90;53.90
49032;DHT22;63443;48.366;10.876;2023-04-03T14:22:43;15.30;52.00
49032;DHT22;63443;48.366;10.876;2023-04-03T14:25:09;15.60;50.80
49032;DHT22;63443;48.366;10.876;2023-04-03T14:27:38;15.00;49.90
49032;DHT22;63443;48.366;10.876;2023-04-03T14:30:05;14.30;50.20
49032;DHT22;63443;48.366;10.876;2023-04-03T14:32:31;13.70;50.80
49032;DHT22;63443;48.366;10.876;2023-04-03T14:34:56;13.40;52.30
49032;DHT22;63443;48.366;10.876;2023-04-03T14:37:24;13.30;52.00
49032;DHT22;63443;48.366;10.876;2023-04-03T14:39:52;14.30;50.90
49032;DHT22;63443;48.366;10.876;2023-04-03T14:42:23;14.60;50.40
49032;DHT22;63443;48.366;10.876;2023-04-03T14:44:48;14.90;49.00
49032;DHT22;63443;48.366;10.876;2023-04-03T14:47:16;15.60;48.10
49032;DHT22;63443;48.366;10.876;2023-04-03T14:49:42;20.10;46.10
49032;DHT22;63443;48.366;10.876;2023-04-03T14:54:46;25.00;38.60
49032;DHT22;63443;48.366;10.876;2023-04-03T14:57:12;26.70;36.20
49032;DHT22;63443;48.366;10.876;2023-04-03T14:59:38;27.80;33.90
49032;DHT22;63443;48.366;10.876;2023-04-03T15:02:10;26.00;33.00
49032;DHT22;63443;48.366;10.876;2023-04-03T15:04:40;25.20;33.80
49032;DHT22;63443;48.366;10.876;2023-04-03T15:07:07;23.60;33.70
49032;DHT22;63443;48.366;10.876;2023-04-03T15:09:34;23.00;35.10
49032;DHT22;63443;48.366;10.876;2023-04-03T15:12:00;22.90;36.20
49032;DHT22;63443;48.366;10.876;2023-04-03T15:14:26;23.40;34.90
49032;DHT22;63443;48.366;10.876;2023-04-03T15:16:51;25.40;34.00
49032;DHT22;63443;48.366;10.876;2023-04-03T15:19:17;28.20;33.40
49032;DHT22;63443;48.366;10.876;2023-04-03T15:21:42;29.10;31.50
49032;DHT22;63443;48.366;10.876;2023-04-03T15:24:08;29.40;30.80
49032;DHT22;63443;48.366;10.876;2023-04-03T15:26:34;30.10;30.40
49032;DHT22;63443;48.366;10.876;2023-04-03T15:29:00;31.10;30.60
49032;DHT22;63443;48.366;10.876;2023-04-03T15:31:25;31.90;30.00
49032;DHT22;63443;48.366;10.876;2023-04-03T15:33:51;31.80;29.80
49032;DHT22;63443;48.366;10.876;2023-04-03T15:36:16;28.50;29.30
49032;DHT22;63443;48.366;10.876;2023-04-03T15:38:41;25.80;30.00
49032;DHT22;63443;48.366;10.876;2023-04-03T15:41:07;23.60;30.90
49032;DHT22;63443;48.366;10.876;2023-04-03T15:43:32;22.40;32.00
49032;DHT22;63443;48.366;10.876;2023-04-03T15:46:01;21.30;32.90
49032;DHT22;63443;48.366;10.876;2023-04-03T15:48:27;20.20;34.50
49032;DHT22;63443;48.366;10.876;2023-04-03T15:50:53;19.10;35.10
49032;DHT22;63443;48.366;10.876;2023-04-03T15:53:18;20.10;34.90
49032;DHT22;63443;48.366;10.876;2023-04-03T15:55:44;19.80;34.70
49032;DHT22;63443;48.366;10.876;2023-04-03T15:58:09;19.00;35.20
49032;DHT22;63443;48.366;10.876;2023-04-03T16:00:36;18.60;34.80
49032;DHT22;63443;48.366;10.876;2023-04-03T16:03:04;18.70;34.50
49032;DHT22;63443;48.366;10.876;2023-04-03T16:05:30;18.80;35.10
49032;DHT22;63443;48.366;10.876;2023-04-03T16:07:56;19.80;35.40
49032;DHT22;63443;48.366;10.876;2023-04-03T16:10:22;19.70;35.10
49032;DHT22;63443;48.366;10.876;2023-04-03T16:12:47;18.80;37.10
49032;DHT22;63443;48.366;10.876;2023-04-03T16:15:13;17.80;36.50
49032;DHT22;63443;48.366;10.876;2023-04-03T16:17:38;16.80;37.80
49032;DHT22;63443;48.366;10.876;2023-04-03T16:20:06;16.00;37.90
49032;DHT22;63443;48.366;10.876;2023-04-03T16:22:32;15.20;38.50
49032;DHT22;63443;48.366;10.876;2023-04-03T16:24:57;14.60;39.50
49032;DHT22;63443;48.366;10.876;2023-04-03T16:27:23;14.20;40.20
49032;DHT22;63443;48.366;10.876;2023-04-03T16:29:53;14.20;40.40
49032;DHT22;63443;48.366;10.876;2023-04-03T16:32:19;14.20;40.60
49032;DHT22;63443;48.366;10.876;2023-04-03T16:34:45;14.30;41.10
49032;DHT22;63443;48.366;10.876;2023-04-03T16:37:10;14.40;41.30
49032;DHT22;63443;48.366;10.876;2023-04-03T16:39:36;14.50;41.40
49032;DHT22;63443;48.366;10.876;2023-04-03T16:42:01;14.50;40.90
49032;DHT22;63443;48.366;10.876;2023-04-03T16:44:27;14.60;40.50
49032;DHT22;63443;48.366;10.876;2023-04-03T16:46:53;14.50;40.00
49032;DHT22;63443;48.366;10.876;2023-04-03T16:49:18;14.50;40.20
49032;DHT22;63443;48.366;10.876;2023-04-03T16:51:44;14.30;40.40
49032;DHT22;63443;48.366;10.876;2023-04-03T16:54:11;13.90;40.70
49032;DHT22;63443;48.366;10.876;2023-04-03T16:56:38;13.40;41.10
49032;DHT22;63443;48.366;10.876;2023-04-03T16:59:04;13.00;41.70
49032;DHT22;63443;48.366;10.876;2023-04-03T17:01:29;12.40;41.80
49032;DHT22;63443;48.366;10.876;2023-04-03T17:03:55;12.00;42.10
49032;DHT22;63443;48.366;10.876;2023-04-03T17:06:20;11.70;43.00
49032;DHT22;63443;48.366;10.876;2023-04-03T17:08:48;11.40;43.80
49032;DHT22;63443;48.366;10.876;2023-04-03T17:11:14;11.10;43.70
49032;DHT22;63443;48.366;10.876;2023-04-03T17:13:40;10.90;44.60